createdAt,value
2018-12-08T00:00:55.787Z,6.20
2018-12-08T00:02:58.396Z,6.20
2018-12-08T00:05:00.986Z,6.20
2018-12-08T00:07:04.371Z,6.20
2018-12-08T00:09:07.079Z,6.30
2018-12-08T00:11:09.644Z,6.20
2018-12-08T00:13:12.272Z,6.40
2018-12-08T00:15:15.267Z,6.30
2018-12-08T00:17:17.859Z,6.30
2018-12-08T00:19:20.487Z,6.30
2018-12-08T00:21:23.035Z,6.30
2018-12-08T00:23:26.506Z,6.30
2018-12-08T00:25:29.080Z,6.30
2018-12-08T00:27:31.717Z,6.30
2018-12-08T00:29:34.280Z,6.40
2018-12-08T00:31:44.245Z,6.40
2018-12-08T00:33:46.847Z,6.40
2018-12-08T00:35:49.556Z,6.30
2018-12-08T00:37:52.164Z,6.30
2018-12-08T00:39:54.755Z,6.30
2018-12-08T00:41:57.336Z,6.30
2018-12-08T00:44:00.074Z,6.30
2018-12-08T00:46:02.644Z,6.30
2018-12-08T00:48:05.256Z,6.30
2018-12-08T00:50:07.814Z,6.20
2018-12-08T00:52:10.504Z,6.20
2018-12-08T00:54:13.113Z,6.20
2018-12-08T00:56:15.702Z,6.30
2018-12-08T00:58:18.341Z,6.30
2018-12-08T01:00:20.923Z,6.30
2018-12-08T01:02:23.540Z,6.30
2018-12-08T01:04:26.165Z,6.40
2018-12-08T01:06:28.722Z,6.30
2018-12-08T01:08:31.386Z,6.30
2018-12-08T01:10:35.759Z,6.30
2018-12-08T01:12:38.380Z,6.40
2018-12-08T01:14:41.019Z,6.40
2018-12-08T01:16:43.603Z,6.40
2018-12-08T01:18:46.195Z,6.40
2018-12-08T01:20:48.771Z,6.40
2018-12-08T01:22:51.384Z,6.40
2018-12-08T01:24:54.695Z,6.40
2018-12-08T01:26:57.283Z,6.40
2018-12-08T01:28:59.901Z,6.50
2018-12-08T01:31:02.530Z,6.50
2018-12-08T01:33:05.114Z,6.40
2018-12-08T01:35:07.702Z,6.40
2018-12-08T01:37:10.259Z,6.50
2018-12-08T01:39:12.853Z,6.40
2018-12-08T01:41:15.420Z,6.50
2018-12-08T01:43:18.016Z,6.50
2018-12-08T01:45:20.592Z,6.50
2018-12-08T01:47:23.164Z,6.50
2018-12-08T01:49:25.739Z,6.50
2018-12-08T01:51:28.317Z,6.40
2018-12-08T01:53:30.960Z,6.40
2018-12-08T01:55:33.521Z,6.40
2018-12-08T01:57:36.113Z,6.40
2018-12-08T01:59:38.728Z,6.40
2018-12-08T02:01:41.325Z,6.50
2018-12-08T02:03:43.944Z,6.50
2018-12-08T02:05:46.507Z,6.50
2018-12-08T02:07:49.139Z,6.50
2018-12-08T02:09:51.771Z,6.50
2018-12-08T02:11:54.380Z,6.50
2018-12-08T02:13:56.987Z,6.50
2018-12-08T02:15:59.576Z,6.50
2018-12-08T02:18:02.139Z,6.50
2018-12-08T02:20:05.420Z,6.40
2018-12-08T02:22:07.986Z,6.50
2018-12-08T02:24:10.586Z,6.50
2018-12-08T02:26:13.134Z,6.50
2018-12-08T02:28:15.731Z,6.50
2018-12-08T02:30:18.334Z,6.40
2018-12-08T02:32:21.814Z,6.40
2018-12-08T02:34:24.434Z,6.40
2018-12-08T02:36:27.060Z,6.40
2018-12-08T02:38:29.789Z,6.40
2018-12-08T02:40:32.353Z,6.40
2018-12-08T02:42:34.918Z,6.40
2018-12-08T02:44:37.513Z,6.40
2018-12-08T02:46:40.095Z,6.40
2018-12-08T02:48:43.483Z,6.40
2018-12-08T02:50:46.044Z,6.40
2018-12-08T02:52:48.604Z,6.40
2018-12-08T02:54:51.234Z,6.40
2018-12-08T02:56:53.781Z,6.40
2018-12-08T02:58:56.394Z,6.40
2018-12-08T03:00:58.976Z,6.40
2018-12-08T03:03:01.544Z,6.40
2018-12-08T03:05:04.794Z,6.30
2018-12-08T03:07:07.803Z,6.30
2018-12-08T03:09:10.395Z,6.30
2018-12-08T03:11:12.996Z,6.30
2018-12-08T03:13:15.561Z,6.30
2018-12-08T03:15:18.161Z,6.30
2018-12-08T03:17:20.723Z,6.30
2018-12-08T03:19:23.341Z,6.30
2018-12-08T03:21:25.931Z,6.30
2018-12-08T03:23:28.531Z,6.30
2018-12-08T03:25:31.141Z,6.30
2018-12-08T03:27:33.728Z,6.30
2018-12-08T03:29:36.346Z,6.30
2018-12-08T03:31:38.900Z,6.30
2018-12-08T03:33:41.459Z,6.30
2018-12-08T03:35:44.055Z,6.30
2018-12-08T03:37:46.616Z,6.30
2018-12-08T03:39:49.763Z,6.30
2018-12-08T03:41:52.326Z,6.30
2018-12-08T03:43:54.969Z,6.30
2018-12-08T03:45:57.567Z,6.30
2018-12-08T03:48:00.132Z,6.30
2018-12-08T03:50:04.032Z,6.30
2018-12-08T03:52:06.602Z,6.30
2018-12-08T03:54:09.206Z,6.30
2018-12-08T03:56:11.777Z,6.30
2018-12-08T03:58:14.350Z,6.30
2018-12-08T04:00:16.943Z,6.30
2018-12-08T04:02:19.555Z,6.30
2018-12-08T04:04:22.163Z,6.40
2018-12-08T04:06:24.746Z,6.40
2018-12-08T04:08:27.316Z,6.40
2018-12-08T04:10:29.942Z,6.40
2018-12-08T04:12:33.193Z,6.40
2018-12-08T04:14:35.791Z,6.40
2018-12-08T04:16:38.358Z,6.40
2018-12-08T04:18:40.943Z,6.30
2018-12-08T04:20:43.577Z,6.30
2018-12-08T04:22:46.183Z,6.40
2018-12-08T04:24:48.907Z,6.40
2018-12-08T04:26:51.503Z,6.40
2018-12-08T04:28:54.095Z,6.40
2018-12-08T04:30:56.700Z,6.40
2018-12-08T04:32:59.286Z,6.40
2018-12-08T04:35:01.925Z,6.40
2018-12-08T04:37:04.499Z,6.40
2018-12-08T04:39:07.204Z,6.30
2018-12-08T04:41:09.871Z,6.30
2018-12-08T04:43:12.443Z,6.40
2018-12-08T04:45:15.138Z,6.40
2018-12-08T04:47:17.705Z,6.30
2018-12-08T04:49:20.291Z,6.30
2018-12-08T04:51:22.874Z,6.30
2018-12-08T04:53:25.465Z,6.30
2018-12-08T04:55:28.079Z,6.40
2018-12-08T04:57:30.642Z,6.30
2018-12-08T04:59:33.226Z,6.30
2018-12-08T05:01:35.845Z,6.40
2018-12-08T05:03:38.413Z,6.40
2018-12-08T05:05:41.013Z,6.40
2018-12-08T05:07:43.610Z,6.40
2018-12-08T05:09:46.250Z,6.30
2018-12-08T05:11:48.827Z,6.30
2018-12-08T05:13:51.380Z,6.30
2018-12-08T05:15:53.982Z,6.30
2018-12-08T05:17:56.539Z,6.30
2018-12-08T05:19:59.131Z,6.30
2018-12-08T05:22:01.700Z,6.30
2018-12-08T05:24:04.304Z,6.30
2018-12-08T05:26:06.903Z,6.30
2018-12-08T05:28:09.476Z,6.40
2018-12-08T05:30:12.069Z,6.50
2018-12-08T05:32:14.644Z,6.50
2018-12-08T05:34:17.222Z,6.50
2018-12-08T05:36:19.806Z,6.50
2018-12-08T05:38:22.362Z,6.50
2018-12-08T05:40:24.987Z,6.40
2018-12-08T05:42:27.552Z,6.40
2018-12-08T05:44:30.143Z,6.50
2018-12-08T05:46:32.773Z,6.50
2018-12-08T05:48:35.388Z,6.50
2018-12-08T05:50:37.986Z,6.40
2018-12-08T05:52:40.583Z,6.30
2018-12-08T05:54:43.145Z,6.40
2018-12-08T05:56:45.787Z,6.40
2018-12-08T05:58:49.374Z,6.40
2018-12-08T06:00:52.016Z,6.40
2018-12-08T06:02:55.226Z,6.30
2018-12-08T06:04:57.834Z,6.30
2018-12-08T06:07:00.460Z,6.30
2018-12-08T06:09:03.335Z,6.20
2018-12-08T06:11:05.939Z,6.20
2018-12-08T06:13:08.518Z,6.20
2018-12-08T06:15:11.098Z,6.20
2018-12-08T06:17:13.686Z,6.20
2018-12-08T06:19:16.263Z,6.20
2018-12-08T06:21:22.950Z,6.20
2018-12-08T06:23:25.534Z,6.20
2018-12-08T06:25:28.151Z,6.10
2018-12-08T06:27:32.859Z,6.20
2018-12-08T06:29:35.429Z,6.20
2018-12-08T06:31:38.050Z,6.20
2018-12-08T06:33:40.627Z,6.30
2018-12-08T06:35:43.248Z,6.30
2018-12-08T06:37:45.844Z,6.30
2018-12-08T06:39:48.411Z,6.30
2018-12-08T06:41:51.012Z,6.20
2018-12-08T06:43:53.572Z,6.20
2018-12-08T06:45:56.173Z,6.20
2018-12-08T06:47:58.727Z,6.10
2018-12-08T06:50:01.299Z,6.10
2018-12-08T06:52:03.909Z,6.10
2018-12-08T06:54:06.498Z,6.10
2018-12-08T06:56:09.191Z,6.10
2018-12-08T06:58:11.831Z,6.10
2018-12-08T07:00:14.503Z,6.00
2018-12-08T07:02:17.196Z,6.00
2018-12-08T07:04:19.746Z,6.00
2018-12-08T07:06:22.369Z,5.90
2018-12-08T07:08:24.963Z,5.90
2018-12-08T07:10:27.644Z,5.80
2018-12-08T07:12:30.275Z,5.80
2018-12-08T07:14:32.874Z,5.80
2018-12-08T07:16:35.491Z,5.90
2018-12-08T07:18:38.094Z,5.90
2018-12-08T07:20:40.680Z,5.80
2018-12-08T07:22:43.405Z,5.90
2018-12-08T07:24:46.005Z,5.90
2018-12-08T07:26:48.616Z,5.80
2018-12-08T07:28:52.102Z,5.80
2018-12-08T07:30:54.679Z,5.80
2018-12-08T07:32:58.186Z,5.80
2018-12-08T07:35:00.789Z,5.80
2018-12-08T07:37:03.409Z,5.80
2018-12-08T07:39:06.489Z,5.80
2018-12-08T07:41:09.051Z,5.90
2018-12-08T07:43:11.807Z,5.90
2018-12-08T07:45:15.280Z,5.90
2018-12-08T07:47:18.067Z,5.90
2018-12-08T07:49:20.625Z,5.90
2018-12-08T07:51:23.191Z,5.90
2018-12-08T07:53:25.830Z,5.90
2018-12-08T07:55:28.402Z,5.80
2018-12-08T07:57:31.004Z,5.80
2018-12-08T07:59:34.544Z,5.80
2018-12-08T08:01:37.224Z,5.70
2018-12-08T08:03:39.848Z,5.70
2018-12-08T08:05:42.415Z,5.70
2018-12-08T08:07:45.027Z,5.70
2018-12-08T08:09:47.622Z,5.70
2018-12-08T08:11:50.186Z,5.70
2018-12-08T08:13:52.783Z,5.70
2018-12-08T08:15:55.368Z,5.70
2018-12-08T08:17:57.977Z,5.80
2018-12-08T08:20:00.591Z,5.80
2018-12-08T08:22:03.225Z,5.80
2018-12-08T08:24:05.815Z,5.80
2018-12-08T08:26:08.387Z,5.70
2018-12-08T08:28:11.015Z,5.70
2018-12-08T08:30:13.665Z,5.80
2018-12-08T08:32:16.333Z,5.80
2018-12-08T08:34:18.942Z,5.80
2018-12-08T08:36:21.530Z,5.80
2018-12-08T08:38:25.712Z,5.80
2018-12-08T08:40:28.303Z,5.80
2018-12-08T08:42:30.899Z,5.80
2018-12-08T08:44:33.498Z,5.90
2018-12-08T08:46:36.079Z,5.90
2018-12-08T08:48:38.695Z,5.90
2018-12-08T08:50:41.288Z,5.90
2018-12-08T08:52:43.926Z,5.90
2018-12-08T08:54:46.517Z,5.90
2018-12-08T08:56:49.110Z,5.90
2018-12-08T08:58:51.724Z,5.90
2018-12-08T09:00:54.307Z,6.00
2018-12-08T09:02:56.908Z,6.00
2018-12-08T09:04:59.539Z,6.00
2018-12-08T09:07:02.138Z,6.00
2018-12-08T09:09:05.628Z,6.00
2018-12-08T09:11:08.230Z,6.00
2018-12-08T09:13:10.862Z,6.00
2018-12-08T09:15:14.175Z,6.00
2018-12-08T09:17:16.825Z,6.00
2018-12-08T09:19:19.473Z,6.00
2018-12-08T09:21:22.088Z,6.10
2018-12-08T09:23:25.015Z,6.10
2018-12-08T09:25:27.656Z,6.10
2018-12-08T09:27:30.694Z,6.10
2018-12-08T09:29:33.365Z,6.10
2018-12-08T09:31:35.987Z,6.10
2018-12-08T09:33:38.921Z,6.10
2018-12-08T09:35:41.519Z,6.20
2018-12-08T09:37:44.149Z,6.20
2018-12-08T09:39:46.784Z,6.30
2018-12-08T09:41:49.400Z,6.30
2018-12-08T09:43:52.006Z,6.40
2018-12-08T09:45:55.029Z,6.40
2018-12-08T09:47:57.690Z,6.50
2018-12-08T09:50:00.243Z,6.50
2018-12-08T09:52:02.923Z,6.50
2018-12-08T09:54:05.536Z,6.40
2018-12-08T09:56:08.113Z,6.50
2018-12-08T09:58:10.725Z,6.50
2018-12-08T10:00:13.326Z,6.60
2018-12-08T10:02:15.915Z,6.60
2018-12-08T10:04:18.507Z,6.60
2018-12-08T10:06:21.350Z,6.60
2018-12-08T10:08:24.085Z,6.60
2018-12-08T10:10:26.650Z,6.60
2018-12-08T10:12:29.199Z,6.60
2018-12-08T10:14:31.801Z,6.50
2018-12-08T10:16:34.504Z,6.50
2018-12-08T10:18:37.183Z,6.50
2018-12-08T10:20:39.783Z,6.50
2018-12-08T10:22:42.545Z,6.50
2018-12-08T10:24:45.160Z,6.50
2018-12-08T10:26:47.714Z,6.50
2018-12-08T10:28:50.309Z,6.50
2018-12-08T10:30:52.863Z,6.50
2018-12-08T10:32:55.435Z,6.50
2018-12-08T10:34:58.259Z,6.50
2018-12-08T10:37:00.907Z,6.50
2018-12-08T10:39:05.843Z,6.50
2018-12-08T10:41:08.405Z,6.50
2018-12-08T10:43:10.987Z,6.50
2018-12-08T10:45:13.989Z,6.50
2018-12-08T10:47:16.663Z,6.50
2018-12-08T10:49:19.347Z,6.50
2018-12-08T10:51:21.902Z,6.50
2018-12-08T10:53:24.470Z,6.50
2018-12-08T10:55:27.048Z,6.50
2018-12-08T10:57:29.606Z,6.50
2018-12-08T10:59:32.195Z,6.60
2018-12-08T11:01:40.468Z,6.60
2018-12-08T11:03:45.763Z,6.60
2018-12-08T11:05:48.316Z,6.50
2018-12-08T11:07:50.864Z,6.50
2018-12-08T11:09:53.547Z,6.60
2018-12-08T11:11:56.113Z,6.60
2018-12-08T11:13:59.537Z,6.60
2018-12-08T11:16:02.110Z,6.60
2018-12-08T11:18:04.663Z,6.70
2018-12-08T11:20:08.233Z,6.70
2018-12-08T11:22:10.807Z,6.70
2018-12-08T11:24:13.392Z,6.70
2018-12-08T11:26:15.947Z,6.70
2018-12-08T11:28:18.508Z,6.80
2018-12-08T11:30:21.091Z,6.80
2018-12-08T11:32:23.708Z,6.80
2018-12-08T11:34:26.303Z,6.80
2018-12-08T11:36:28.897Z,6.80
2018-12-08T11:38:31.454Z,6.80
2018-12-08T11:40:34.054Z,6.80
2018-12-08T11:42:36.629Z,6.90
2018-12-08T11:44:39.608Z,6.90
2018-12-08T11:46:43.383Z,6.90
2018-12-08T11:48:45.991Z,6.90
2018-12-08T11:50:48.576Z,6.90
2018-12-08T11:52:51.160Z,6.90
2018-12-08T11:54:53.759Z,6.90
2018-12-08T11:56:56.323Z,6.90
2018-12-08T11:58:58.891Z,6.90
2018-12-08T12:01:01.514Z,6.90
2018-12-08T12:03:04.085Z,6.90
2018-12-08T12:05:07.069Z,6.90
2018-12-08T12:07:09.629Z,7.00
2018-12-08T12:09:12.310Z,7.00
2018-12-08T12:11:14.886Z,7.00
2018-12-08T12:13:17.443Z,7.00
2018-12-08T12:15:20.034Z,7.10
2018-12-08T12:17:22.630Z,7.10
2018-12-08T12:19:25.194Z,7.10
2018-12-08T12:21:27.793Z,7.20
2018-12-08T12:23:30.352Z,7.20
2018-12-08T12:25:33.046Z,7.20
2018-12-08T12:27:35.746Z,7.30
2018-12-08T12:29:38.642Z,7.20
2018-12-08T12:31:41.263Z,7.20
2018-12-08T12:33:43.828Z,7.20
2018-12-08T12:35:46.418Z,7.20
2018-12-08T12:37:48.965Z,7.20
2018-12-08T12:39:51.866Z,7.20
2018-12-08T12:41:55.462Z,7.20
2018-12-08T12:43:58.020Z,7.20
2018-12-08T12:46:00.604Z,7.10
2018-12-08T12:48:03.179Z,7.10
2018-12-08T12:50:06.664Z,7.10
2018-12-08T12:52:09.271Z,7.10
2018-12-08T12:54:11.843Z,7.10
2018-12-08T12:56:14.428Z,7.10
2018-12-08T12:58:17.218Z,7.10
2018-12-08T13:00:20.048Z,7.10
2018-12-08T13:02:22.842Z,7.10
2018-12-08T13:04:25.707Z,7.10
2018-12-08T13:06:28.629Z,7.10
2018-12-08T13:08:31.615Z,7.10
2018-12-08T13:10:34.230Z,7.10
2018-12-08T13:12:36.794Z,7.10
2018-12-08T13:14:39.371Z,7.10
2018-12-08T13:16:42.057Z,7.10
2018-12-08T13:18:44.697Z,7.10
2018-12-08T13:20:47.278Z,7.20
2018-12-08T13:22:50.015Z,7.10
2018-12-08T13:24:52.693Z,7.10
2018-12-08T13:26:55.281Z,7.20
2018-12-08T13:28:57.846Z,7.20
2018-12-08T13:31:00.740Z,7.20
2018-12-08T13:33:03.314Z,7.20
2018-12-08T13:35:07.954Z,7.30
2018-12-08T13:37:10.552Z,7.30
2018-12-08T13:39:13.115Z,7.40
2018-12-08T13:41:15.699Z,7.40
2018-12-08T13:43:18.277Z,7.40
2018-12-08T13:45:20.955Z,7.40
2018-12-08T13:47:23.578Z,7.40
2018-12-08T13:49:26.752Z,7.40
2018-12-08T13:51:29.338Z,7.40
2018-12-08T13:53:36.732Z,7.40
2018-12-08T13:55:36.519Z,7.40
2018-12-08T13:57:39.100Z,7.40
2018-12-08T13:59:43.944Z,7.40
2018-12-08T14:01:46.539Z,7.40
2018-12-08T14:03:49.097Z,7.40
2018-12-08T14:05:51.661Z,7.30
2018-12-08T14:07:54.339Z,7.40
2018-12-08T14:09:56.899Z,7.40
2018-12-08T14:11:59.505Z,7.40
2018-12-08T14:14:02.102Z,7.40
2018-12-08T14:16:04.762Z,7.40
2018-12-08T14:18:07.361Z,7.40
2018-12-08T14:20:25.099Z,7.40
2018-12-08T14:22:27.781Z,7.40
2018-12-08T14:24:30.340Z,7.40
2018-12-08T14:26:32.949Z,7.40
2018-12-08T14:28:35.602Z,7.40
2018-12-08T14:30:38.158Z,7.30
2018-12-08T14:32:40.782Z,7.40
2018-12-08T14:34:43.333Z,7.40
2018-12-08T14:36:45.954Z,7.40
2018-12-08T14:38:48.525Z,7.40
2018-12-08T14:40:51.535Z,7.40
2018-12-08T14:42:54.124Z,7.40
2018-12-08T14:44:56.769Z,7.50
2018-12-08T14:46:59.355Z,7.40
2018-12-08T14:49:01.911Z,7.50
2018-12-08T14:51:04.460Z,7.50
2018-12-08T14:53:07.061Z,7.50
2018-12-08T14:55:09.823Z,7.50
2018-12-08T14:57:12.503Z,7.50
2018-12-08T14:59:15.101Z,7.50
2018-12-08T15:01:17.655Z,7.60
2018-12-08T15:03:20.249Z,7.60
2018-12-08T15:05:22.834Z,7.60
2018-12-08T15:07:25.443Z,7.60
2018-12-08T15:09:28.010Z,7.60
2018-12-08T15:11:30.583Z,7.60
2018-12-08T15:13:33.285Z,7.70
2018-12-08T15:15:36.054Z,7.70
2018-12-08T15:17:39.082Z,7.60
2018-12-08T15:19:41.675Z,7.60
2018-12-08T15:21:44.236Z,7.60
2018-12-08T15:23:46.867Z,7.60
2018-12-08T15:25:49.447Z,7.60
2018-12-08T15:27:52.152Z,7.70
2018-12-08T15:29:54.808Z,7.70
2018-12-08T15:31:57.382Z,7.70
2018-12-08T15:33:59.990Z,7.70
2018-12-08T15:36:02.573Z,7.70
2018-12-08T15:38:05.257Z,7.70
2018-12-08T15:40:08.213Z,7.70
2018-12-08T15:42:10.802Z,7.70
2018-12-08T15:44:13.585Z,7.70
2018-12-08T15:46:16.237Z,7.70
2018-12-08T15:48:18.846Z,7.70
2018-12-08T15:50:21.575Z,7.70
2018-12-08T15:52:24.338Z,7.70
2018-12-08T15:54:27.018Z,7.60
2018-12-08T15:56:29.568Z,7.70
2018-12-08T15:58:32.164Z,7.60
2018-12-08T16:00:34.813Z,7.60
2018-12-08T16:02:37.493Z,7.60
2018-12-08T16:04:40.170Z,7.70
2018-12-08T16:06:42.735Z,7.70
2018-12-08T16:08:45.320Z,7.60
2018-12-08T16:10:47.884Z,7.60
2018-12-08T16:12:50.519Z,7.60
2018-12-08T16:14:53.094Z,7.60
2018-12-08T16:16:55.661Z,7.60
2018-12-08T16:18:58.240Z,7.60
2018-12-08T16:21:00.991Z,7.70
2018-12-08T16:23:03.632Z,7.60
2018-12-08T16:25:07.087Z,7.60
2018-12-08T16:27:10.341Z,7.60
2018-12-08T16:29:12.948Z,7.60
2018-12-08T16:31:15.501Z,7.60
2018-12-08T16:33:18.098Z,7.60
2018-12-08T16:35:20.647Z,7.60
2018-12-08T16:37:23.367Z,7.60
2018-12-08T16:39:25.923Z,7.60
2018-12-08T16:41:28.487Z,7.60
2018-12-08T16:43:31.080Z,7.60
2018-12-08T16:45:33.719Z,7.70
2018-12-08T16:47:36.310Z,7.70
2018-12-08T16:49:38.951Z,7.70
2018-12-08T16:51:41.551Z,7.70
2018-12-08T16:53:44.658Z,7.70
2018-12-08T16:55:47.320Z,7.70
2018-12-08T16:57:49.969Z,7.70
2018-12-08T16:59:52.538Z,7.70
2018-12-08T17:01:55.093Z,7.70
2018-12-08T17:03:57.738Z,7.70
2018-12-08T17:06:00.427Z,7.70
2018-12-08T17:08:03.061Z,7.70
2018-12-08T17:10:06.431Z,7.70
2018-12-08T17:12:09.189Z,7.70
2018-12-08T17:14:11.820Z,7.70
2018-12-08T17:16:14.393Z,7.60
2018-12-08T17:18:17.003Z,7.60
2018-12-08T17:20:19.555Z,7.60
2018-12-08T17:22:22.208Z,7.60
2018-12-08T17:24:24.807Z,7.60
2018-12-08T17:26:27.359Z,7.50
2018-12-08T17:28:29.962Z,7.50
2018-12-08T17:30:32.644Z,7.50
2018-12-08T17:32:35.298Z,7.50
2018-12-08T17:34:37.888Z,7.40
2018-12-08T17:36:40.461Z,7.40
2018-12-08T17:38:43.085Z,7.40
2018-12-08T17:40:45.659Z,7.40
2018-12-08T17:42:48.317Z,7.40
2018-12-08T17:44:50.907Z,7.40
2018-12-08T17:46:53.490Z,7.40
2018-12-08T17:48:56.085Z,7.40
2018-12-08T17:51:00.640Z,7.40
2018-12-08T17:53:03.385Z,7.40
2018-12-08T17:55:06.155Z,7.40
2018-12-08T17:57:08.726Z,7.40
2018-12-08T17:59:11.317Z,7.40
2018-12-08T18:01:13.995Z,7.40
2018-12-08T18:03:16.674Z,7.40
2018-12-08T18:05:19.856Z,7.30
2018-12-08T18:07:23.836Z,7.40
2018-12-08T18:09:26.451Z,7.40
2018-12-08T18:11:29.013Z,7.40
2018-12-08T18:13:31.604Z,7.40
2018-12-08T18:15:34.158Z,7.30
2018-12-08T18:17:36.728Z,7.40
2018-12-08T18:19:39.326Z,7.40
2018-12-08T18:21:42.165Z,7.40
2018-12-08T18:23:44.851Z,7.40
2018-12-08T18:25:47.531Z,7.50
2018-12-08T18:27:50.087Z,7.40
2018-12-08T18:29:52.669Z,7.40
2018-12-08T18:31:55.243Z,7.40
2018-12-08T18:33:57.844Z,7.40
2018-12-08T18:36:01.241Z,7.40
2018-12-08T18:38:05.118Z,7.40
2018-12-08T18:40:07.909Z,7.40
2018-12-08T18:42:10.485Z,7.40
2018-12-08T18:44:13.739Z,7.40
2018-12-08T18:46:16.305Z,7.40
2018-12-08T18:48:18.946Z,7.40
2018-12-08T18:50:21.601Z,7.40
2018-12-08T18:52:24.189Z,7.40
2018-12-08T18:54:26.804Z,7.40
2018-12-08T18:56:29.366Z,7.50
2018-12-08T18:58:31.943Z,7.50
2018-12-08T19:00:35.171Z,7.50
2018-12-08T19:02:38.715Z,7.50
2018-12-08T19:04:41.346Z,7.50
2018-12-08T19:06:43.966Z,7.50
2018-12-08T19:08:46.586Z,7.50
2018-12-08T19:10:49.168Z,7.50
2018-12-08T19:12:51.744Z,7.50
2018-12-08T19:14:54.337Z,7.50
2018-12-08T19:16:56.909Z,7.50
2018-12-08T19:18:59.514Z,7.50
2018-12-08T19:21:03.290Z,7.60
2018-12-08T19:23:05.897Z,7.60
2018-12-08T19:25:08.655Z,7.60
2018-12-08T19:27:11.258Z,7.60
2018-12-08T19:29:14.000Z,7.70
2018-12-08T19:31:16.569Z,7.70
2018-12-08T19:33:19.731Z,7.70
2018-12-08T19:35:23.193Z,7.70
2018-12-08T19:37:25.809Z,7.70
2018-12-08T19:39:28.396Z,7.70
2018-12-08T19:41:31.017Z,7.80
2018-12-08T19:43:33.579Z,7.80
2018-12-08T19:45:36.156Z,7.80
2018-12-08T19:47:38.725Z,7.80
2018-12-08T19:49:41.301Z,7.80
2018-12-08T19:51:43.977Z,7.80
2018-12-08T19:53:51.028Z,7.80
2018-12-08T19:55:53.614Z,7.80
2018-12-08T19:57:56.246Z,7.90
2018-12-08T19:59:59.781Z,7.90
2018-12-08T20:02:02.353Z,7.80
2018-12-08T20:04:04.927Z,7.90
2018-12-08T20:06:08.496Z,7.90
2018-12-08T20:08:11.110Z,7.90
2018-12-08T20:10:13.693Z,7.90
2018-12-08T20:12:16.258Z,8.00
2018-12-08T20:14:18.866Z,8.00
2018-12-08T20:16:21.447Z,8.00
2018-12-08T20:18:24.021Z,8.00
2018-12-08T20:20:26.627Z,8.00
2018-12-08T20:22:29.195Z,8.00
2018-12-08T20:24:31.793Z,8.00
2018-12-08T20:26:34.364Z,8.00
2018-12-08T20:28:37.862Z,8.00
2018-12-08T20:30:40.599Z,8.00
2018-12-08T20:32:43.193Z,8.00
2018-12-08T20:34:45.825Z,8.00
2018-12-08T20:36:48.482Z,8.00
2018-12-08T20:38:51.102Z,8.00
2018-12-08T20:40:53.728Z,8.00
2018-12-08T20:42:56.361Z,8.10
2018-12-08T20:44:59.135Z,8.10
2018-12-08T20:47:01.746Z,8.00
2018-12-08T20:49:04.301Z,8.10
2018-12-08T20:51:06.896Z,8.10
2018-12-08T20:53:09.457Z,8.10
2018-12-08T20:55:12.054Z,8.20
2018-12-08T20:57:14.615Z,8.20
2018-12-08T20:59:17.189Z,8.20
2018-12-08T21:01:19.781Z,8.20
2018-12-08T21:03:22.351Z,8.20
2018-12-08T21:05:24.938Z,8.30
2018-12-08T21:07:27.499Z,8.30
2018-12-08T21:09:30.053Z,8.30
2018-12-08T21:11:32.656Z,8.30
2018-12-08T21:13:35.216Z,8.30
2018-12-08T21:15:37.810Z,8.30
2018-12-08T21:17:40.357Z,8.40
2018-12-08T21:19:42.907Z,8.40
2018-12-08T21:21:45.485Z,8.40
2018-12-08T21:23:48.128Z,8.40
2018-12-08T21:25:50.740Z,8.40
2018-12-08T21:27:53.315Z,8.50
2018-12-08T21:29:55.906Z,8.40
2018-12-08T21:31:58.595Z,8.40
2018-12-08T21:34:01.246Z,8.40
2018-12-08T21:36:03.867Z,8.40
2018-12-08T21:38:06.445Z,8.40
2018-12-08T21:40:13.174Z,8.40
2018-12-08T21:42:15.737Z,8.40
2018-12-08T21:44:18.309Z,8.40
2018-12-08T21:46:20.922Z,8.40
2018-12-08T21:48:23.483Z,8.50
2018-12-08T21:50:26.071Z,8.50
2018-12-08T21:52:28.627Z,8.50
2018-12-08T21:54:31.194Z,8.50
2018-12-08T21:56:33.783Z,8.50
2018-12-08T21:58:36.346Z,8.50
2018-12-08T22:00:38.944Z,8.50
2018-12-08T22:02:41.492Z,8.50
2018-12-08T22:04:44.069Z,8.50
2018-12-08T22:06:46.650Z,8.50
2018-12-08T22:08:49.223Z,8.50
2018-12-08T22:10:51.846Z,8.50
2018-12-08T22:12:54.431Z,8.50
2018-12-08T22:14:59.373Z,8.50
2018-12-08T22:17:01.954Z,8.50
2018-12-08T22:19:04.528Z,8.50
2018-12-08T22:21:07.120Z,8.60
2018-12-08T22:23:09.671Z,8.50
2018-12-08T22:25:12.323Z,8.60
2018-12-08T22:27:14.920Z,8.60
2018-12-08T22:29:17.475Z,8.60
2018-12-08T22:31:20.180Z,8.60
2018-12-08T22:33:22.753Z,8.60
2018-12-08T22:35:25.324Z,8.60
2018-12-08T22:37:29.093Z,8.60
2018-12-08T22:39:31.916Z,8.60
2018-12-08T22:41:34.501Z,8.70
2018-12-08T22:43:37.075Z,8.60
2018-12-08T22:45:39.679Z,8.70
2018-12-08T22:47:42.236Z,8.80
2018-12-08T22:49:44.790Z,8.80
2018-12-08T22:51:47.461Z,8.80
2018-12-08T22:53:50.133Z,8.90
2018-12-08T22:55:53.445Z,8.90
2018-12-08T22:57:56.020Z,8.90
2018-12-08T22:59:58.570Z,9.00
2018-12-08T23:02:01.166Z,8.90
2018-12-08T23:04:04.717Z,8.90
2018-12-08T23:06:07.311Z,8.90
2018-12-08T23:08:09.863Z,8.90
2018-12-08T23:10:12.520Z,8.90
2018-12-08T23:12:15.298Z,8.90
2018-12-08T23:14:17.913Z,9.00
2018-12-08T23:16:20.507Z,9.00
2018-12-08T23:18:23.164Z,9.00
2018-12-08T23:20:25.743Z,9.00
2018-12-08T23:22:28.340Z,9.00
2018-12-08T23:24:30.923Z,9.00
2018-12-08T23:26:33.523Z,9.10
2018-12-08T23:28:36.088Z,9.20
2018-12-08T23:30:38.755Z,9.10
2018-12-08T23:32:41.358Z,9.20
2018-12-08T23:34:43.958Z,9.20
2018-12-08T23:36:46.573Z,9.30
2018-12-08T23:38:49.139Z,9.30
2018-12-08T23:40:51.843Z,9.30
2018-12-08T23:42:54.419Z,9.30
2018-12-08T23:44:56.983Z,9.30
2018-12-08T23:46:59.562Z,9.30
2018-12-08T23:49:02.117Z,9.30
2018-12-08T23:51:04.689Z,9.30
2018-12-08T23:53:07.285Z,9.30
2018-12-08T23:55:10.038Z,9.20
2018-12-08T23:57:12.638Z,9.20
2018-12-08T23:59:15.211Z,9.30
